createdAt,value
2017-11-08T00:00:38.006Z,16.90
2017-11-08T00:03:05.430Z,17.30
2017-11-08T00:05:34.341Z,15.27
2017-11-08T00:08:02.104Z,14.90
2017-11-08T00:10:29.573Z,15.17
2017-11-08T00:12:57.065Z,15.63
2017-11-08T00:15:24.497Z,16.17
2017-11-08T00:17:55.890Z,15.97
2017-11-08T00:20:23.368Z,15.83
2017-11-08T00:22:51.592Z,16.13
2017-11-08T00:25:19.042Z,17.07
2017-11-08T00:27:47.651Z,15.67
2017-11-08T00:30:15.092Z,14.77
2017-11-08T00:32:42.576Z,15.07
2017-11-08T00:35:10.037Z,16.70
2017-11-08T00:37:37.515Z,14.47
2017-11-08T00:40:06.545Z,16.10
2017-11-08T00:42:33.974Z,14.37
2017-11-08T00:45:01.401Z,14.93
2017-11-08T00:47:31.735Z,15.67
2017-11-08T00:49:59.928Z,15.90
2017-11-08T00:52:29.292Z,16.03
2017-11-08T00:54:56.819Z,16.33
2017-11-08T00:57:30.026Z,17.13
2017-11-08T00:59:59.416Z,14.00
2017-11-08T01:02:27.617Z,15.97
2017-11-08T01:04:55.046Z,15.30
2017-11-08T01:07:22.477Z,15.77
2017-11-08T01:09:54.270Z,16.27
2017-11-08T01:12:21.697Z,15.93
2017-11-08T01:15:09.429Z,15.00
2017-11-08T01:17:36.850Z,15.70
2017-11-08T01:20:05.077Z,15.63
2017-11-08T01:22:32.508Z,15.63
2017-11-08T01:24:59.931Z,16.03
2017-11-08T01:27:27.885Z,16.17
2017-11-08T01:29:55.309Z,14.77
2017-11-08T01:32:22.752Z,15.13
2017-11-08T01:34:50.168Z,15.80
2017-11-08T01:37:23.324Z,16.23
2017-11-08T01:39:50.753Z,13.87
2017-11-08T01:42:18.198Z,15.30
2017-11-08T01:44:48.427Z,16.37
2017-11-08T01:47:16.624Z,15.17
2017-11-08T01:49:47.372Z,16.93
2017-11-08T01:52:16.737Z,16.57
2017-11-08T01:54:44.915Z,15.73
2017-11-08T01:57:14.872Z,15.73
2017-11-08T01:59:43.525Z,14.97
2017-11-08T02:02:11.785Z,14.80
2017-11-08T02:04:39.987Z,15.37
2017-11-08T02:07:07.425Z,14.50
2017-11-08T02:09:34.849Z,14.53
2017-11-08T02:12:07.625Z,15.20
2017-11-08T02:14:35.057Z,16.27
2017-11-08T02:17:02.497Z,15.10
2017-11-08T02:19:30.188Z,16.83
2017-11-08T02:21:58.217Z,16.57
2017-11-08T02:24:27.413Z,15.60
2017-11-08T02:27:00.528Z,15.03
2017-11-08T02:29:29.732Z,16.23
2017-11-08T02:31:58.463Z,15.80
2017-11-08T02:34:26.660Z,14.60
2017-11-08T02:36:54.822Z,15.93
2017-11-08T02:39:23.010Z,14.30
2017-11-08T02:41:50.436Z,15.70
2017-11-08T02:44:18.629Z,16.07
2017-11-08T02:46:46.564Z,16.00
2017-11-08T02:49:13.987Z,16.13
2017-11-08T02:51:41.825Z,16.57
2017-11-08T02:54:09.261Z,15.40
2017-11-08T02:56:36.688Z,15.87
2017-11-08T02:59:04.322Z,16.20
2017-11-08T03:01:31.761Z,16.13
2017-11-08T03:04:13.891Z,16.23
2017-11-08T03:07:00.913Z,16.27
2017-11-08T03:09:28.356Z,15.77
2017-11-08T03:11:56.169Z,16.83
2017-11-08T03:14:23.603Z,15.80
2017-11-08T03:16:51.037Z,17.07
2017-11-08T03:19:18.486Z,15.47
2017-11-08T03:21:45.908Z,17.77
2017-11-08T03:24:14.099Z,17.43
2017-11-08T03:26:41.524Z,16.40
2017-11-08T03:29:09.564Z,15.97
2017-11-08T03:31:37.425Z,17.53
2017-11-08T03:34:05.558Z,17.97
2017-11-08T03:36:33.254Z,16.73
2017-11-08T03:39:00.657Z,15.97
2017-11-08T03:41:28.092Z,17.97
2017-11-08T03:43:55.515Z,17.00
2017-11-08T03:46:22.953Z,16.13
2017-11-08T03:48:50.385Z,16.57
2017-11-08T03:51:18.256Z,17.40
2017-11-08T03:53:46.446Z,15.13
2017-11-08T03:56:14.650Z,16.97
2017-11-08T03:58:42.416Z,15.43
2017-11-08T04:01:09.852Z,15.07
2017-11-08T04:03:37.276Z,14.40
2017-11-08T04:06:04.700Z,13.90
2017-11-08T04:08:32.124Z,16.70
2017-11-08T04:10:59.552Z,18.10
2017-11-08T04:13:27.197Z,17.17
2017-11-08T04:15:54.904Z,15.63
2017-11-08T04:18:22.345Z,13.93
2017-11-08T04:20:50.544Z,18.13
2017-11-08T04:23:18.409Z,16.47
2017-11-08T04:25:45.825Z,19.77
2017-11-08T04:28:13.537Z,19.33
2017-11-08T04:30:40.961Z,15.93
2017-11-08T04:33:09.745Z,15.17
2017-11-08T04:35:38.736Z,15.00
2017-11-08T04:38:06.930Z,14.80
2017-11-08T04:40:34.344Z,16.87
2017-11-08T04:43:02.205Z,14.93
2017-11-08T04:45:29.633Z,14.40
2017-11-08T04:47:57.477Z,16.73
2017-11-08T04:50:24.925Z,19.10
2017-11-08T04:52:53.123Z,20.83
2017-11-08T04:55:20.546Z,18.90
2017-11-08T04:57:51.196Z,20.97
2017-11-08T05:00:18.622Z,19.73
2017-11-08T05:02:48.631Z,21.10
2017-11-08T05:05:16.387Z,19.50
2017-11-08T05:07:45.653Z,21.47
2017-11-08T05:10:14.569Z,22.97
2017-11-08T05:12:42.496Z,20.53
2017-11-08T05:15:10.626Z,23.37
2017-11-08T05:17:38.055Z,21.50
2017-11-08T05:20:05.476Z,21.93
2017-11-08T05:22:33.673Z,21.03
2017-11-08T05:25:02.249Z,21.43
2017-11-08T05:27:29.681Z,20.80
2017-11-08T05:29:57.878Z,20.77
2017-11-08T05:32:25.310Z,21.20
2017-11-08T05:34:53.508Z,20.33
2017-11-08T05:37:20.996Z,21.43
2017-11-08T05:39:48.416Z,23.50
2017-11-08T05:42:16.433Z,20.60
2017-11-08T05:44:44.641Z,23.23
2017-11-08T05:47:13.272Z,22.67
2017-11-08T05:49:40.699Z,20.80
2017-11-08T05:52:08.134Z,23.90
2017-11-08T05:54:36.820Z,22.87
2017-11-08T05:57:05.016Z,22.30
2017-11-08T05:59:32.440Z,23.67
2017-11-08T06:01:59.872Z,23.43
2017-11-08T06:04:27.970Z,24.77
2017-11-08T06:06:55.384Z,25.87
2017-11-08T06:09:23.225Z,22.30
2017-11-08T06:11:50.652Z,24.13
2017-11-08T06:14:18.080Z,22.23
2017-11-08T06:16:45.512Z,27.07
2017-11-08T06:19:12.933Z,24.90
2017-11-08T06:21:41.133Z,26.73
2017-11-08T06:24:08.548Z,25.47
2017-11-08T06:26:35.980Z,26.77
2017-11-08T06:29:03.403Z,25.97
2017-11-08T06:31:31.564Z,27.20
2017-11-08T06:33:59.756Z,27.43
2017-11-08T06:36:27.192Z,27.80
2017-11-08T06:38:55.381Z,27.03
2017-11-08T06:41:22.795Z,26.50
2017-11-08T06:43:50.238Z,24.27
2017-11-08T06:46:18.081Z,26.20
2017-11-08T06:48:45.514Z,26.80
2017-11-08T06:51:15.369Z,26.87
2017-11-08T06:53:42.806Z,25.70
2017-11-08T06:56:10.224Z,29.30
2017-11-08T06:58:38.432Z,32.43
2017-11-08T07:01:05.860Z,33.70
2017-11-08T07:03:33.293Z,28.57
2017-11-08T07:06:00.727Z,26.60
2017-11-08T07:08:30.264Z,25.77
2017-11-08T07:11:03.480Z,25.47
2017-11-08T07:13:37.950Z,26.03
2017-11-08T07:16:06.307Z,25.47
2017-11-08T07:18:34.459Z,26.63
2017-11-08T07:21:01.882Z,27.40
2017-11-08T07:23:29.314Z,26.00
2017-11-08T07:25:56.750Z,24.83
2017-11-08T07:28:24.536Z,24.47
2017-11-08T07:30:52.567Z,25.73
2017-11-08T07:33:19.991Z,25.63
2017-11-08T07:35:47.417Z,27.57
2017-11-08T07:38:14.844Z,26.43
2017-11-08T07:40:42.273Z,27.97
2017-11-08T07:43:10.472Z,26.27
2017-11-08T07:45:38.108Z,28.60
2017-11-08T07:48:06.302Z,27.63
2017-11-08T07:50:34.280Z,27.20
2017-11-08T07:53:01.714Z,26.30
2017-11-08T07:55:35.664Z,27.37
2017-11-08T07:58:05.022Z,27.10
2017-11-08T08:00:33.203Z,26.50
2017-11-08T08:03:01.400Z,25.20
2017-11-08T08:05:28.824Z,25.33
2017-11-08T08:07:57.794Z,25.50
2017-11-08T08:10:25.220Z,28.70
2017-11-08T08:12:52.647Z,26.03
2017-11-08T08:15:20.068Z,29.87
2017-11-08T08:17:47.513Z,27.43
2017-11-08T08:20:14.945Z,28.37
2017-11-08T08:22:42.375Z,26.53
2017-11-08T08:25:10.573Z,25.97
2017-11-08T08:27:38.443Z,28.37
2017-11-08T08:30:06.433Z,29.23
2017-11-08T08:32:34.699Z,26.73
2017-11-08T08:35:02.888Z,26.87
2017-11-08T08:37:30.327Z,26.60
2017-11-08T08:39:58.012Z,25.17
2017-11-08T08:42:25.422Z,25.60
2017-11-08T08:44:52.849Z,26.07
2017-11-08T08:47:20.272Z,28.37
2017-11-08T08:49:48.233Z,21.40
2017-11-08T08:52:15.676Z,26.47
2017-11-08T08:54:43.097Z,27.07
2017-11-08T08:57:11.289Z,25.47
2017-11-08T08:59:39.322Z,27.57
2017-11-08T09:02:12.750Z,29.90
2017-11-08T09:04:40.933Z,26.73
2017-11-08T09:07:08.365Z,27.27
2017-11-08T09:09:36.556Z,27.77
2017-11-08T09:12:03.986Z,29.87
2017-11-08T09:14:31.414Z,29.73
2017-11-08T09:16:58.835Z,29.77
2017-11-08T09:19:26.260Z,28.87
2017-11-08T09:21:54.448Z,30.60
2017-11-08T09:24:22.689Z,30.53
2017-11-08T09:26:50.172Z,28.60
2017-11-08T09:29:17.611Z,28.63
2017-11-08T09:31:58.837Z,29.90
2017-11-08T09:34:27.589Z,28.90
2017-11-08T09:36:57.461Z,27.90
2017-11-08T09:39:25.884Z,29.17
2017-11-08T09:44:57.812Z,27.87
2017-11-08T09:47:26.014Z,29.00
2017-11-08T09:49:53.928Z,31.83
2017-11-08T09:52:21.370Z,29.93
2017-11-08T09:54:48.800Z,28.17
2017-11-08T09:57:16.239Z,28.07
2017-11-08T09:59:43.656Z,31.03
2017-11-08T10:02:11.077Z,28.73
2017-11-08T10:04:38.516Z,30.73
2017-11-08T10:07:05.949Z,27.93
2017-11-08T10:09:37.082Z,29.73
2017-11-08T10:12:11.925Z,28.53
2017-11-08T10:14:40.674Z,28.57
2017-11-08T10:17:10.931Z,25.30
2017-11-08T10:19:39.133Z,28.97
2017-11-08T10:22:09.508Z,27.73
2017-11-08T10:24:37.141Z,28.53
2017-11-08T10:27:04.656Z,29.00
2017-11-08T10:29:32.031Z,28.60
2017-11-08T10:31:59.448Z,29.60
2017-11-08T10:34:27.664Z,30.27
2017-11-08T10:36:55.159Z,29.13
2017-11-08T10:39:23.720Z,29.80
2017-11-08T10:41:51.145Z,29.80
2017-11-08T10:44:18.561Z,25.63
2017-11-08T10:46:47.735Z,29.60
2017-11-08T10:49:20.912Z,28.93
2017-11-08T10:51:48.342Z,29.23
2017-11-08T10:54:15.798Z,26.67
2017-11-08T10:56:43.227Z,26.57
2017-11-08T10:59:16.415Z,25.83
2017-11-08T11:01:43.866Z,27.13
2017-11-08T11:04:11.304Z,25.77
2017-11-08T11:06:39.496Z,26.50
2017-11-08T11:09:06.938Z,29.57
2017-11-08T11:11:34.377Z,24.17
2017-11-08T11:14:07.388Z,28.80
2017-11-08T11:16:35.576Z,26.20
2017-11-08T11:19:03.014Z,25.70
2017-11-08T11:21:31.207Z,26.47
2017-11-08T11:24:01.992Z,24.57
2017-11-08T11:26:34.453Z,28.37
2017-11-08T11:29:01.879Z,30.33
2017-11-08T11:31:29.311Z,28.53
2017-11-08T11:33:56.747Z,30.00
2017-11-08T11:36:24.179Z,28.40
2017-11-08T11:38:54.410Z,31.30
2017-11-08T11:41:22.564Z,33.27
2017-11-08T11:43:50.007Z,28.00
2017-11-08T11:46:18.187Z,30.80
2017-11-08T11:48:49.448Z,30.07
2017-11-08T11:51:22.492Z,33.20
2017-11-08T11:53:49.925Z,31.07
2017-11-08T11:56:17.366Z,31.43
2017-11-08T11:58:44.808Z,33.33
2017-11-08T12:01:12.237Z,28.17
2017-11-08T12:03:40.428Z,30.13
2017-11-08T12:06:08.289Z,31.63
2017-11-08T12:08:35.730Z,31.87
2017-11-08T12:11:03.955Z,33.40
2017-11-08T12:13:38.045Z,29.80
2017-11-08T12:16:07.904Z,31.70
2017-11-08T12:18:35.344Z,30.07
2017-11-08T12:21:02.761Z,27.57
2017-11-08T12:23:30.501Z,24.50
2017-11-08T12:25:57.920Z,28.70
2017-11-08T12:28:30.977Z,31.07
2017-11-08T12:31:03.076Z,28.87
2017-11-08T12:33:36.918Z,26.50
2017-11-08T12:36:04.345Z,29.37
2017-11-08T12:38:32.507Z,29.73
2017-11-08T12:40:59.927Z,30.10
2017-11-08T12:43:30.018Z,28.50
2017-11-08T12:46:01.126Z,28.80
2017-11-08T12:48:28.998Z,26.47
2017-11-08T12:50:56.435Z,30.37
2017-11-08T12:53:23.862Z,27.33
2017-11-08T12:55:52.084Z,27.83
2017-11-08T12:58:22.050Z,30.17
2017-11-08T13:00:50.249Z,32.03
2017-11-08T13:03:17.713Z,32.07
2017-11-08T13:05:50.762Z,30.10
2017-11-08T13:08:19.146Z,32.83
2017-11-08T13:13:53.637Z,31.20
2017-11-08T13:16:21.055Z,32.07
2017-11-08T13:18:49.341Z,31.43
2017-11-08T13:21:17.538Z,32.33
2017-11-08T13:23:44.974Z,27.77
2017-11-08T13:26:13.060Z,31.80
2017-11-08T13:28:40.502Z,30.97
2017-11-08T13:31:07.932Z,31.73
2017-11-08T13:33:35.683Z,26.67
2017-11-08T13:36:03.137Z,32.33
2017-11-08T13:38:30.765Z,26.20
2017-11-08T13:40:58.384Z,30.63
2017-11-08T13:43:26.591Z,34.00
2017-11-08T13:45:54.950Z,32.80
2017-11-08T13:48:23.228Z,31.40
2017-11-08T13:50:51.857Z,31.73
2017-11-08T13:53:19.320Z,34.27
2017-11-08T13:55:46.737Z,34.30
2017-11-08T13:58:14.161Z,35.17
2017-11-08T14:00:41.597Z,33.63
2017-11-08T14:03:09.032Z,32.33
2017-11-08T14:05:36.696Z,33.57
2017-11-08T14:08:04.117Z,34.53
2017-11-08T14:10:32.320Z,34.10
2017-11-08T14:12:59.752Z,31.80
2017-11-08T14:15:28.369Z,34.47
2017-11-08T14:17:55.800Z,32.30
2017-11-08T14:20:23.230Z,33.30
2017-11-08T14:22:52.578Z,36.70
2017-11-08T14:25:20.006Z,31.43
2017-11-08T14:27:48.196Z,37.40
2017-11-08T14:30:15.639Z,29.93
2017-11-08T14:32:43.839Z,31.00
2017-11-08T14:35:12.131Z,32.20
2017-11-08T14:37:39.562Z,32.60
2017-11-08T14:40:07.040Z,28.73
2017-11-08T14:42:39.137Z,27.47
2017-11-08T14:45:06.581Z,31.47
2017-11-08T14:47:34.012Z,31.40
2017-11-08T14:50:01.437Z,29.73
2017-11-08T14:52:30.470Z,27.50
2017-11-08T14:54:57.920Z,31.83
2017-11-08T14:57:25.338Z,28.67
2017-11-08T14:59:53.543Z,29.90
2017-11-08T15:02:21.167Z,32.40
2017-11-08T15:04:48.648Z,33.63
2017-11-08T15:07:16.834Z,30.07
2017-11-08T15:09:44.270Z,34.53
2017-11-08T15:12:12.465Z,31.57
2017-11-08T15:14:42.696Z,29.13
2017-11-08T15:17:10.541Z,28.47
2017-11-08T15:19:44.384Z,32.23
2017-11-08T15:22:11.824Z,30.87
2017-11-08T15:24:39.261Z,34.07
2017-11-08T15:27:07.469Z,32.97
2017-11-08T15:29:36.851Z,31.87
2017-11-08T15:32:04.699Z,31.50
2017-11-08T15:34:34.728Z,36.03
2017-11-08T15:37:02.946Z,37.47
2017-11-08T15:39:30.597Z,38.27
2017-11-08T15:41:58.042Z,36.27
2017-11-08T15:44:25.468Z,34.20
2017-11-08T15:46:54.452Z,36.67
2017-11-08T15:49:22.657Z,36.67
2017-11-08T15:51:50.082Z,43.10
2017-11-08T15:54:18.708Z,41.90
2017-11-08T15:56:46.134Z,42.57
2017-11-08T15:59:14.402Z,38.60
2017-11-08T16:01:45.058Z,32.03
2017-11-08T16:04:12.511Z,39.43
2017-11-08T16:06:40.707Z,37.20
2017-11-08T16:09:10.041Z,35.30
2017-11-08T16:11:37.478Z,34.57
2017-11-08T16:14:05.489Z,31.17
2017-11-08T16:16:33.711Z,37.93
2017-11-08T16:19:03.098Z,30.53
2017-11-08T16:21:31.601Z,34.10
2017-11-08T16:23:59.015Z,41.87
2017-11-08T16:26:27.274Z,40.30
2017-11-08T16:28:54.733Z,34.70
2017-11-08T16:31:22.175Z,35.17
2017-11-08T16:33:50.570Z,29.43
2017-11-08T16:36:18.023Z,34.87
2017-11-08T16:38:45.463Z,34.17
2017-11-08T16:41:13.724Z,33.80
2017-11-08T16:43:41.265Z,36.00
2017-11-08T16:46:08.711Z,37.00
2017-11-08T16:48:36.150Z,35.13
2017-11-08T16:51:04.879Z,35.67
2017-11-08T16:53:32.323Z,39.57
2017-11-08T16:55:59.772Z,43.50
2017-11-08T16:58:28.113Z,39.20
2017-11-08T17:00:56.505Z,43.77
2017-11-08T17:03:24.715Z,44.50
2017-11-08T17:05:52.213Z,50.97
2017-11-08T17:08:20.629Z,54.03
2017-11-08T17:10:48.838Z,42.00
2017-11-08T17:13:16.285Z,32.00
2017-11-08T17:15:43.726Z,36.30
2017-11-08T17:18:11.173Z,36.07
2017-11-08T17:20:39.371Z,36.00
2017-11-08T17:23:07.330Z,40.27
2017-11-08T17:25:34.780Z,39.37
2017-11-08T17:28:02.665Z,37.73
2017-11-08T17:30:30.374Z,37.40
2017-11-08T17:32:57.802Z,32.53
2017-11-08T17:35:25.767Z,31.30
2017-11-08T17:37:53.730Z,31.90
2017-11-08T17:40:21.732Z,34.73
2017-11-08T17:42:50.272Z,26.37
2017-11-08T17:45:18.198Z,33.87
2017-11-08T17:47:46.261Z,32.40
2017-11-08T17:50:14.794Z,29.00
2017-11-08T17:52:42.231Z,28.87
2017-11-08T17:55:10.124Z,29.93
2017-11-08T17:57:38.207Z,30.63
2017-11-08T18:00:05.709Z,29.60
2017-11-08T18:02:33.952Z,29.97
2017-11-08T18:05:02.201Z,27.87
2017-11-08T18:07:29.652Z,27.23
2017-11-08T18:09:57.089Z,30.50
2017-11-08T18:12:25.279Z,26.20
2017-11-08T18:14:52.726Z,28.73
2017-11-08T18:17:20.167Z,23.17
2017-11-08T18:19:48.364Z,26.73
2017-11-08T18:22:16.378Z,27.77
2017-11-08T18:24:43.816Z,23.63
2017-11-08T18:27:11.242Z,28.60
2017-11-08T18:29:38.678Z,25.93
2017-11-08T18:32:06.870Z,25.93
2017-11-08T18:34:34.313Z,24.07
2017-11-08T18:37:02.501Z,24.40
2017-11-08T18:39:30.238Z,25.13
2017-11-08T18:41:57.657Z,28.00
2017-11-08T18:44:26.289Z,24.83
2017-11-08T18:46:54.539Z,22.53
2017-11-08T18:49:21.954Z,21.87
2017-11-08T18:51:49.391Z,29.23
2017-11-08T18:54:17.576Z,24.63
2017-11-08T18:56:45.335Z,21.83
2017-11-08T18:59:14.500Z,22.10
2017-11-08T19:01:42.624Z,19.93
2017-11-08T19:04:10.064Z,19.70
2017-11-08T19:06:38.833Z,19.57
2017-11-08T19:09:07.026Z,19.73
2017-11-08T19:11:34.476Z,26.70
2017-11-08T19:14:02.674Z,24.27
2017-11-08T19:16:30.298Z,22.97
2017-11-08T19:18:58.767Z,23.33
2017-11-08T19:21:26.197Z,20.20
2017-11-08T19:23:53.630Z,22.07
2017-11-08T19:26:21.065Z,28.20
2017-11-08T19:28:48.504Z,25.60
2017-11-08T19:31:15.933Z,25.33
2017-11-08T19:33:43.370Z,24.43
2017-11-08T19:36:10.829Z,27.07
2017-11-08T19:38:38.317Z,26.10
2017-11-08T19:41:07.645Z,24.87
2017-11-08T19:43:35.822Z,23.47
2017-11-08T19:46:03.270Z,21.60
2017-11-08T19:48:30.680Z,18.37
2017-11-08T19:50:58.124Z,16.93
2017-11-08T19:53:25.665Z,19.80
2017-11-08T19:55:53.112Z,22.27
2017-11-08T19:58:21.298Z,25.20
2017-11-08T20:00:49.126Z,19.90
2017-11-08T20:03:16.541Z,22.10
2017-11-08T20:05:44.090Z,18.10
2017-11-08T20:08:11.521Z,21.50
2017-11-08T20:10:40.279Z,21.80
2017-11-08T20:13:08.113Z,19.57
2017-11-08T20:15:42.089Z,19.27
2017-11-08T20:18:09.530Z,23.10
2017-11-08T20:20:37.946Z,22.07
2017-11-08T20:23:05.382Z,22.30
2017-11-08T20:25:32.843Z,23.17
2017-11-08T20:28:00.274Z,20.97
2017-11-08T20:30:28.495Z,19.83
2017-11-08T20:32:55.918Z,20.03
2017-11-08T20:35:24.124Z,19.90
2017-11-08T20:37:54.940Z,19.27
2017-11-08T20:40:22.373Z,23.33
2017-11-08T20:42:50.581Z,19.37
2017-11-08T20:45:18.006Z,22.93
2017-11-08T20:47:46.505Z,23.93
2017-11-08T20:50:14.705Z,19.60
2017-11-08T20:52:42.194Z,22.67
2017-11-08T20:55:10.328Z,24.03
2017-11-08T20:57:37.757Z,25.33
2017-11-08T21:00:05.964Z,24.53
2017-11-08T21:02:33.386Z,25.40
2017-11-08T21:05:02.098Z,30.33
2017-11-08T21:07:29.947Z,28.60
2017-11-08T21:09:58.130Z,28.50
2017-11-08T21:12:25.566Z,22.47
2017-11-08T21:14:53.761Z,20.03
2017-11-08T21:17:21.206Z,24.50
2017-11-08T21:19:49.399Z,19.37
2017-11-08T21:22:17.226Z,25.40
2017-11-08T21:24:45.324Z,26.37
2017-11-08T21:27:13.530Z,29.87
2017-11-08T21:29:41.286Z,26.27
2017-11-08T21:32:08.716Z,23.60
2017-11-08T21:34:37.639Z,23.37
2017-11-08T21:37:05.092Z,23.83
2017-11-08T21:39:33.135Z,21.33
2017-11-08T21:42:01.322Z,22.67
2017-11-08T21:44:28.770Z,26.93
2017-11-08T21:46:57.234Z,31.10
2017-11-08T21:49:24.655Z,23.50
2017-11-08T21:51:52.086Z,27.83
2017-11-08T21:54:19.532Z,20.20
2017-11-08T21:56:47.551Z,19.63
2017-11-08T21:59:15.000Z,23.07
2017-11-08T22:01:42.433Z,23.60
2017-11-08T22:04:09.874Z,24.07
2017-11-08T22:06:37.318Z,22.30
2017-11-08T22:09:05.519Z,24.00
2017-11-08T22:11:33.032Z,24.07
2017-11-08T22:14:00.998Z,22.10
2017-11-08T22:16:28.448Z,23.30
2017-11-08T22:18:56.351Z,25.87
2017-11-08T22:21:23.786Z,21.43
2017-11-08T22:23:51.223Z,22.13
2017-11-08T22:26:18.659Z,19.57
2017-11-08T22:28:46.115Z,18.63
2017-11-08T22:31:13.533Z,18.13
2017-11-08T22:33:40.970Z,20.87
2017-11-08T22:36:09.211Z,17.57
2017-11-08T22:38:36.652Z,23.90
2017-11-08T22:41:04.082Z,23.47
2017-11-08T22:43:31.898Z,20.87
2017-11-08T22:45:59.326Z,19.50
2017-11-08T22:48:26.770Z,19.87
2017-11-08T22:50:54.244Z,18.97
2017-11-08T22:53:21.869Z,20.70
2017-11-08T22:55:51.987Z,21.97
2017-11-08T22:58:20.725Z,25.50
2017-11-08T23:00:48.169Z,20.07
2017-11-08T23:03:15.602Z,23.90
2017-11-08T23:05:43.046Z,21.07
2017-11-08T23:08:12.022Z,19.80
2017-11-08T23:10:41.408Z,18.47
2017-11-08T23:13:08.834Z,20.97
2017-11-08T23:15:36.285Z,24.90
2017-11-08T23:18:03.706Z,22.43
2017-11-08T23:20:31.914Z,24.07
2017-11-08T23:22:59.349Z,24.13
2017-11-08T23:25:29.209Z,23.00
2017-11-08T23:27:56.746Z,23.03
2017-11-08T23:30:24.200Z,23.07
2017-11-08T23:32:51.660Z,22.57
2017-11-08T23:35:19.086Z,27.13
2017-11-08T23:37:47.288Z,25.20
2017-11-08T23:40:14.972Z,22.77
2017-11-08T23:42:42.407Z,23.17
2017-11-08T23:45:09.867Z,20.73
2017-11-08T23:47:37.303Z,23.07
2017-11-08T23:50:04.733Z,21.90
2017-11-08T23:52:32.941Z,24.67
2017-11-08T23:55:00.889Z,25.67
2017-11-08T23:57:29.085Z,24.03
